sensor_id;sensor_type;location;lat;lon;timestamp;P1;durP1;ratioP1;P2;durP2;ratioP2
1320;SDS011;653;51.480;11.992;2022-10-16T00:01:52;1.80;;;0.87;;
1320;SDS011;653;51.480;11.992;2022-10-16T00:04:17;1.47;;;0.70;;
1320;SDS011;653;51.480;11.992;2022-10-16T00:06:42;2.23;;;0.80;;
1320;SDS011;653;51.480;11.992;2022-10-16T00:09:08;1.57;;;0.80;;
1320;SDS011;653;51.480;11.992;2022-10-16T00:11:34;1.30;;;0.90;;
1320;SDS011;653;51.480;11.992;2022-10-16T00:14:02;2.37;;;1.07;;
1320;SDS011;653;51.480;11.992;2022-10-16T00:16:29;2.43;;;0.90;;
1320;SDS011;653;51.480;11.992;2022-10-16T00:18:55;2.73;;;0.80;;
1320;SDS011;653;51.480;11.992;2022-10-16T00:21:23;1.50;;;1.10;;
1320;SDS011;653;51.480;11.992;2022-10-16T00:23:50;1.20;;;0.73;;
1320;SDS011;653;51.480;11.992;2022-10-16T00:26:18;1.80;;;1.20;;
1320;SDS011;653;51.480;11.992;2022-10-16T00:28:48;1.57;;;0.93;;
1320;SDS011;653;51.480;11.992;2022-10-16T00:31:14;1.57;;;0.80;;
1320;SDS011;653;51.480;11.992;2022-10-16T00:33:40;1.37;;;1.00;;
1320;SDS011;653;51.480;11.992;2022-10-16T00:36:05;1.43;;;0.90;;
1320;SDS011;653;51.480;11.992;2022-10-16T00:38:32;1.20;;;0.70;;
1320;SDS011;653;51.480;11.992;2022-10-16T00:40:57;1.30;;;0.80;;
1320;SDS011;653;51.480;11.992;2022-10-16T00:46:13;1.47;;;0.80;;
1320;SDS011;653;51.480;11.992;2022-10-16T00:48:55;1.50;;;1.00;;
1320;SDS011;653;51.480;11.992;2022-10-16T00:51:30;1.70;;;0.90;;
1320;SDS011;653;51.480;11.992;2022-10-16T00:53:59;1.47;;;0.90;;
1320;SDS011;653;51.480;11.992;2022-10-16T00:56:26;2.60;;;0.70;;
1320;SDS011;653;51.480;11.992;2022-10-16T00:58:52;1.50;;;1.00;;
1320;SDS011;653;51.480;11.992;2022-10-16T01:01:18;1.40;;;1.10;;
1320;SDS011;653;51.480;11.992;2022-10-16T01:03:43;2.77;;;1.47;;
1320;SDS011;653;51.480;11.992;2022-10-16T01:06:16;1.93;;;1.00;;
1320;SDS011;653;51.480;11.992;2022-10-16T01:09:51;1.40;;;1.00;;
1320;SDS011;653;51.480;11.992;2022-10-16T01:12:23;1.40;;;1.00;;
1320;SDS011;653;51.480;11.992;2022-10-16T01:17:47;2.33;;;1.00;;
1320;SDS011;653;51.480;11.992;2022-10-16T01:20:22;2.50;;;1.10;;
1320;SDS011;653;51.480;11.992;2022-10-16T01:23:04;1.60;;;1.00;;
1320;SDS011;653;51.480;11.992;2022-10-16T01:31:24;1.30;;;0.83;;
1320;SDS011;653;51.480;11.992;2022-10-16T01:37:33;2.03;;;1.00;;
1320;SDS011;653;51.480;11.992;2022-10-16T01:40:02;1.77;;;1.20;;
1320;SDS011;653;51.480;11.992;2022-10-16T01:42:34;1.20;;;1.00;;
1320;SDS011;653;51.480;11.992;2022-10-16T01:45:03;1.50;;;1.20;;
1320;SDS011;653;51.480;11.992;2022-10-16T01:47:32;1.50;;;0.87;;
1320;SDS011;653;51.480;11.992;2022-10-16T01:50:00;1.30;;;0.90;;
1320;SDS011;653;51.480;11.992;2022-10-16T01:52:27;2.47;;;1.10;;
1320;SDS011;653;51.480;11.992;2022-10-16T01:54:56;1.63;;;1.10;;
1320;SDS011;653;51.480;11.992;2022-10-16T01:57:21;1.57;;;1.00;;
1320;SDS011;653;51.480;11.992;2022-10-16T01:59:51;1.20;;;0.90;;
1320;SDS011;653;51.480;11.992;2022-10-16T02:02:19;1.20;;;0.90;;
1320;SDS011;653;51.480;11.992;2022-10-16T02:04:49;1.20;;;1.10;;
1320;SDS011;653;51.480;11.992;2022-10-16T02:07:18;2.77;;;1.60;;
1320;SDS011;653;51.480;11.992;2022-10-16T02:09:44;1.23;;;0.70;;
1320;SDS011;653;51.480;11.992;2022-10-16T02:12:22;2.20;;;1.10;;
1320;SDS011;653;51.480;11.992;2022-10-16T02:15:00;1.60;;;1.00;;
1320;SDS011;653;51.480;11.992;2022-10-16T02:17:28;1.23;;;0.90;;
1320;SDS011;653;51.480;11.992;2022-10-16T02:19:54;4.07;;;1.17;;
1320;SDS011;653;51.480;11.992;2022-10-16T02:22:45;2.10;;;1.40;;
1320;SDS011;653;51.480;11.992;2022-10-16T02:25:15;4.00;;;1.07;;
1320;SDS011;653;51.480;11.992;2022-10-16T02:28:04;1.50;;;1.27;;
1320;SDS011;653;51.480;11.992;2022-10-16T02:30:38;1.57;;;1.37;;
1320;SDS011;653;51.480;11.992;2022-10-16T02:33:07;2.03;;;1.20;;
1320;SDS011;653;51.480;11.992;2022-10-16T02:35:34;1.83;;;1.33;;
1320;SDS011;653;51.480;11.992;2022-10-16T02:38:00;1.80;;;1.60;;
1320;SDS011;653;51.480;11.992;2022-10-16T02:40:26;1.80;;;1.10;;
1320;SDS011;653;51.480;11.992;2022-10-16T02:42:52;2.67;;;1.30;;
1320;SDS011;653;51.480;11.992;2022-10-16T02:45:20;1.57;;;1.23;;
1320;SDS011;653;51.480;11.992;2022-10-16T02:47:46;1.40;;;1.20;;
1320;SDS011;653;51.480;11.992;2022-10-16T02:50:11;1.63;;;1.30;;
1320;SDS011;653;51.480;11.992;2022-10-16T02:52:37;1.73;;;1.13;;
1320;SDS011;653;51.480;11.992;2022-10-16T02:55:03;1.20;;;0.90;;
1320;SDS011;653;51.480;11.992;2022-10-16T02:57:29;2.20;;;1.50;;
1320;SDS011;653;51.480;11.992;2022-10-16T02:59:54;2.10;;;1.50;;
1320;SDS011;653;51.480;11.992;2022-10-16T03:02:21;1.70;;;1.40;;
1320;SDS011;653;51.480;11.992;2022-10-16T03:04:47;1.50;;;1.30;;
1320;SDS011;653;51.480;11.992;2022-10-16T03:07:13;2.00;;;0.97;;
1320;SDS011;653;51.480;11.992;2022-10-16T03:09:38;1.40;;;1.10;;
1320;SDS011;653;51.480;11.992;2022-10-16T03:12:03;2.10;;;1.10;;
1320;SDS011;653;51.480;11.992;2022-10-16T03:14:29;1.70;;;1.30;;
1320;SDS011;653;51.480;11.992;2022-10-16T03:16:55;4.47;;;1.50;;
1320;SDS011;653;51.480;11.992;2022-10-16T03:19:21;2.20;;;2.00;;
1320;SDS011;653;51.480;11.992;2022-10-16T03:21:48;3.97;;;2.17;;
1320;SDS011;653;51.480;11.992;2022-10-16T03:24:13;1.70;;;1.57;;
1320;SDS011;653;51.480;11.992;2022-10-16T03:26:38;2.67;;;1.77;;
1320;SDS011;653;51.480;11.992;2022-10-16T03:29:04;3.57;;;2.07;;
1320;SDS011;653;51.480;11.992;2022-10-16T03:31:29;2.03;;;1.60;;
1320;SDS011;653;51.480;11.992;2022-10-16T03:33:55;2.30;;;2.10;;
1320;SDS011;653;51.480;11.992;2022-10-16T03:36:21;1.93;;;1.67;;
1320;SDS011;653;51.480;11.992;2022-10-16T03:38:48;1.83;;;1.63;;
1320;SDS011;653;51.480;11.992;2022-10-16T03:41:13;1.90;;;1.70;;
1320;SDS011;653;51.480;11.992;2022-10-16T03:43:39;1.70;;;1.50;;
1320;SDS011;653;51.480;11.992;2022-10-16T03:46:04;1.70;;;1.57;;
1320;SDS011;653;51.480;11.992;2022-10-16T03:48:29;1.63;;;1.40;;
1320;SDS011;653;51.480;11.992;2022-10-16T03:50:55;1.90;;;1.67;;
1320;SDS011;653;51.480;11.992;2022-10-16T03:53:21;2.60;;;1.63;;
1320;SDS011;653;51.480;11.992;2022-10-16T03:55:46;2.00;;;1.77;;
1320;SDS011;653;51.480;11.992;2022-10-16T03:58:11;1.63;;;1.53;;
1320;SDS011;653;51.480;11.992;2022-10-16T04:00:43;1.97;;;1.63;;
1320;SDS011;653;51.480;11.992;2022-10-16T04:03:10;4.13;;;1.60;;
1320;SDS011;653;51.480;11.992;2022-10-16T04:05:37;2.17;;;1.97;;
1320;SDS011;653;51.480;11.992;2022-10-16T04:08:02;3.60;;;1.57;;
1320;SDS011;653;51.480;11.992;2022-10-16T04:10:28;1.60;;;1.50;;
1320;SDS011;653;51.480;11.992;2022-10-16T04:12:53;2.20;;;1.80;;
1320;SDS011;653;51.480;11.992;2022-10-16T04:15:21;2.33;;;2.13;;
1320;SDS011;653;51.480;11.992;2022-10-16T04:17:48;2.20;;;2.00;;
1320;SDS011;653;51.480;11.992;2022-10-16T04:20:14;2.70;;;2.07;;
1320;SDS011;653;51.480;11.992;2022-10-16T04:22:39;3.00;;;1.83;;
1320;SDS011;653;51.480;11.992;2022-10-16T04:25:05;1.90;;;1.80;;
1320;SDS011;653;51.480;11.992;2022-10-16T04:27:31;1.70;;;1.50;;
1320;SDS011;653;51.480;11.992;2022-10-16T04:29:57;2.40;;;2.20;;
1320;SDS011;653;51.480;11.992;2022-10-16T04:32:23;1.93;;;1.57;;
1320;SDS011;653;51.480;11.992;2022-10-16T04:34:50;4.93;;;1.77;;
1320;SDS011;653;51.480;11.992;2022-10-16T04:37:15;2.20;;;1.87;;
1320;SDS011;653;51.480;11.992;2022-10-16T04:39:40;2.13;;;1.93;;
1320;SDS011;653;51.480;11.992;2022-10-16T04:42:06;2.40;;;1.93;;
1320;SDS011;653;51.480;11.992;2022-10-16T04:44:31;2.50;;;1.90;;
1320;SDS011;653;51.480;11.992;2022-10-16T04:46:56;3.00;;;1.80;;
1320;SDS011;653;51.480;11.992;2022-10-16T04:49:21;3.20;;;2.17;;
1320;SDS011;653;51.480;11.992;2022-10-16T04:51:47;1.90;;;1.70;;
1320;SDS011;653;51.480;11.992;2022-10-16T04:54:12;2.63;;;1.67;;
1320;SDS011;653;51.480;11.992;2022-10-16T04:56:38;2.60;;;2.20;;
1320;SDS011;653;51.480;11.992;2022-10-16T04:59:12;2.27;;;2.07;;
1320;SDS011;653;51.480;11.992;2022-10-16T05:01:38;2.10;;;1.83;;
1320;SDS011;653;51.480;11.992;2022-10-16T05:04:04;3.37;;;2.20;;
1320;SDS011;653;51.480;11.992;2022-10-16T05:06:29;1.80;;;1.70;;
1320;SDS011;653;51.480;11.992;2022-10-16T05:08:55;3.60;;;2.30;;
1320;SDS011;653;51.480;11.992;2022-10-16T05:11:20;2.83;;;2.10;;
1320;SDS011;653;51.480;11.992;2022-10-16T05:13:45;2.30;;;2.10;;
1320;SDS011;653;51.480;11.992;2022-10-16T05:16:12;3.47;;;2.40;;
1320;SDS011;653;51.480;11.992;2022-10-16T05:18:37;3.13;;;1.80;;
1320;SDS011;653;51.480;11.992;2022-10-16T05:21:03;2.30;;;2.10;;
1320;SDS011;653;51.480;11.992;2022-10-16T05:23:29;2.40;;;2.13;;
1320;SDS011;653;51.480;11.992;2022-10-16T05:25:55;2.40;;;1.80;;
1320;SDS011;653;51.480;11.992;2022-10-16T05:28:23;3.53;;;2.40;;
1320;SDS011;653;51.480;11.992;2022-10-16T05:30:49;3.63;;;1.70;;
1320;SDS011;653;51.480;11.992;2022-10-16T05:33:15;1.73;;;1.60;;
1320;SDS011;653;51.480;11.992;2022-10-16T05:35:43;2.00;;;1.63;;
1320;SDS011;653;51.480;11.992;2022-10-16T05:38:08;2.00;;;1.60;;
1320;SDS011;653;51.480;11.992;2022-10-16T05:40:34;2.30;;;1.37;;
1320;SDS011;653;51.480;11.992;2022-10-16T05:43:00;2.07;;;1.87;;
1320;SDS011;653;51.480;11.992;2022-10-16T05:45:26;1.93;;;1.73;;
1320;SDS011;653;51.480;11.992;2022-10-16T05:47:52;1.67;;;1.40;;
1320;SDS011;653;51.480;11.992;2022-10-16T05:50:17;3.90;;;1.40;;
1320;SDS011;653;51.480;11.992;2022-10-16T05:52:43;2.33;;;1.67;;
1320;SDS011;653;51.480;11.992;2022-10-16T05:55:09;2.50;;;1.30;;
1320;SDS011;653;51.480;11.992;2022-10-16T05:57:35;1.70;;;1.40;;
1320;SDS011;653;51.480;11.992;2022-10-16T06:00:00;1.60;;;1.50;;
1320;SDS011;653;51.480;11.992;2022-10-16T06:02:25;2.20;;;2.00;;
1320;SDS011;653;51.480;11.992;2022-10-16T06:04:52;1.90;;;1.50;;
1320;SDS011;653;51.480;11.992;2022-10-16T06:07:22;1.90;;;1.53;;
1320;SDS011;653;51.480;11.992;2022-10-16T06:09:49;2.20;;;1.40;;
1320;SDS011;653;51.480;11.992;2022-10-16T06:12:24;2.37;;;1.50;;
1320;SDS011;653;51.480;11.992;2022-10-16T06:14:51;1.50;;;1.20;;
1320;SDS011;653;51.480;11.992;2022-10-16T06:17:16;3.10;;;1.57;;
1320;SDS011;653;51.480;11.992;2022-10-16T06:19:41;8.40;;;2.10;;
1320;SDS011;653;51.480;11.992;2022-10-16T06:22:07;1.63;;;1.40;;
1320;SDS011;653;51.480;11.992;2022-10-16T06:24:32;6.00;;;1.80;;
1320;SDS011;653;51.480;11.992;2022-10-16T06:26:58;1.40;;;1.30;;
1320;SDS011;653;51.480;11.992;2022-10-16T06:29:23;2.80;;;1.70;;
1320;SDS011;653;51.480;11.992;2022-10-16T06:31:49;1.30;;;1.20;;
1320;SDS011;653;51.480;11.992;2022-10-16T06:34:14;2.30;;;1.40;;
1320;SDS011;653;51.480;11.992;2022-10-16T06:36:40;2.00;;;1.60;;
1320;SDS011;653;51.480;11.992;2022-10-16T06:39:06;3.23;;;1.50;;
1320;SDS011;653;51.480;11.992;2022-10-16T06:41:33;1.97;;;1.70;;
1320;SDS011;653;51.480;11.992;2022-10-16T06:43:58;3.13;;;1.70;;
1320;SDS011;653;51.480;11.992;2022-10-16T06:46:25;1.60;;;1.40;;
1320;SDS011;653;51.480;11.992;2022-10-16T06:48:52;1.83;;;1.43;;
1320;SDS011;653;51.480;11.992;2022-10-16T06:51:19;2.23;;;2.03;;
1320;SDS011;653;51.480;11.992;2022-10-16T06:53:47;4.50;;;1.40;;
1320;SDS011;653;51.480;11.992;2022-10-16T06:56:15;1.73;;;1.53;;
1320;SDS011;653;51.480;11.992;2022-10-16T06:58:49;3.40;;;1.70;;
1320;SDS011;653;51.480;11.992;2022-10-16T07:01:20;2.10;;;1.70;;
1320;SDS011;653;51.480;11.992;2022-10-16T07:03:48;2.87;;;1.70;;
1320;SDS011;653;51.480;11.992;2022-10-16T07:06:15;3.20;;;2.10;;
1320;SDS011;653;51.480;11.992;2022-10-16T07:08:42;3.53;;;1.90;;
1320;SDS011;653;51.480;11.992;2022-10-16T07:11:10;2.93;;;2.23;;
1320;SDS011;653;51.480;11.992;2022-10-16T07:13:41;3.27;;;1.70;;
1320;SDS011;653;51.480;11.992;2022-10-16T07:16:14;2.23;;;2.00;;
1320;SDS011;653;51.480;11.992;2022-10-16T07:18:40;1.50;;;1.40;;
1320;SDS011;653;51.480;11.992;2022-10-16T07:21:10;1.90;;;1.70;;
1320;SDS011;653;51.480;11.992;2022-10-16T07:23:37;2.10;;;1.90;;
1320;SDS011;653;51.480;11.992;2022-10-16T07:26:04;2.07;;;1.30;;
1320;SDS011;653;51.480;11.992;2022-10-16T07:28:29;2.00;;;1.30;;
1320;SDS011;653;51.480;11.992;2022-10-16T07:30:59;2.13;;;1.70;;
1320;SDS011;653;51.480;11.992;2022-10-16T07:33:31;3.40;;;1.70;;
1320;SDS011;653;51.480;11.992;2022-10-16T07:35:59;2.30;;;1.37;;
1320;SDS011;653;51.480;11.992;2022-10-16T07:38:24;1.87;;;1.43;;
1320;SDS011;653;51.480;11.992;2022-10-16T07:41:00;1.87;;;1.40;;
1320;SDS011;653;51.480;11.992;2022-10-16T07:43:27;3.40;;;1.70;;
1320;SDS011;653;51.480;11.992;2022-10-16T07:45:54;3.23;;;1.83;;
1320;SDS011;653;51.480;11.992;2022-10-16T07:48:20;1.67;;;1.17;;
1320;SDS011;653;51.480;11.992;2022-10-16T07:50:47;2.50;;;1.53;;
1320;SDS011;653;51.480;11.992;2022-10-16T07:53:13;1.40;;;1.23;;
1320;SDS011;653;51.480;11.992;2022-10-16T07:55:40;5.67;;;1.67;;
1320;SDS011;653;51.480;11.992;2022-10-16T07:58:07;1.73;;;1.50;;
1320;SDS011;653;51.480;11.992;2022-10-16T08:00:33;2.60;;;1.63;;
1320;SDS011;653;51.480;11.992;2022-10-16T08:02:59;1.97;;;1.77;;
1320;SDS011;653;51.480;11.992;2022-10-16T08:05:26;1.57;;;1.43;;
1320;SDS011;653;51.480;11.992;2022-10-16T08:07:58;1.83;;;1.40;;
1320;SDS011;653;51.480;11.992;2022-10-16T08:10:24;3.73;;;2.03;;
1320;SDS011;653;51.480;11.992;2022-10-16T08:12:51;2.40;;;1.40;;
1320;SDS011;653;51.480;11.992;2022-10-16T08:15:18;1.40;;;1.30;;
1320;SDS011;653;51.480;11.992;2022-10-16T08:17:53;2.10;;;1.60;;
1320;SDS011;653;51.480;11.992;2022-10-16T08:20:19;2.70;;;1.63;;
1320;SDS011;653;51.480;11.992;2022-10-16T08:22:44;2.43;;;1.60;;
1320;SDS011;653;51.480;11.992;2022-10-16T08:25:11;2.03;;;1.53;;
1320;SDS011;653;51.480;11.992;2022-10-16T08:27:37;2.53;;;1.30;;
1320;SDS011;653;51.480;11.992;2022-10-16T08:30:06;1.80;;;1.50;;
1320;SDS011;653;51.480;11.992;2022-10-16T08:32:32;2.60;;;1.57;;
1320;SDS011;653;51.480;11.992;2022-10-16T08:34:59;2.17;;;1.07;;
1320;SDS011;653;51.480;11.992;2022-10-16T08:37:47;2.00;;;1.07;;
1320;SDS011;653;51.480;11.992;2022-10-16T08:40:22;2.03;;;1.50;;
1320;SDS011;653;51.480;11.992;2022-10-16T08:48:53;1.97;;;1.60;;
1320;SDS011;653;51.480;11.992;2022-10-16T08:51:27;4.10;;;1.13;;
1320;SDS011;653;51.480;11.992;2022-10-16T08:53:57;1.77;;;1.30;;
1320;SDS011;653;51.480;11.992;2022-10-16T08:56:26;1.40;;;0.97;;
1320;SDS011;653;51.480;11.992;2022-10-16T08:58:53;1.23;;;0.97;;
1320;SDS011;653;51.480;11.992;2022-10-16T09:01:22;2.30;;;0.90;;
1320;SDS011;653;51.480;11.992;2022-10-16T09:08:46;1.30;;;1.00;;
1320;SDS011;653;51.480;11.992;2022-10-16T09:11:50;1.50;;;0.93;;
1320;SDS011;653;51.480;11.992;2022-10-16T09:20:22;2.03;;;1.50;;
1320;SDS011;653;51.480;11.992;2022-10-16T09:23:15;2.97;;;1.20;;
1320;SDS011;653;51.480;11.992;2022-10-16T09:26:05;1.60;;;1.00;;
1320;SDS011;653;51.480;11.992;2022-10-16T09:28:32;1.30;;;1.03;;
1320;SDS011;653;51.480;11.992;2022-10-16T09:31:03;1.90;;;0.97;;
1320;SDS011;653;51.480;11.992;2022-10-16T09:33:30;1.63;;;0.80;;
1320;SDS011;653;51.480;11.992;2022-10-16T09:36:02;1.50;;;0.80;;
1320;SDS011;653;51.480;11.992;2022-10-16T09:38:36;1.13;;;0.80;;
1320;SDS011;653;51.480;11.992;2022-10-16T09:41:03;1.77;;;0.60;;
1320;SDS011;653;51.480;11.992;2022-10-16T09:46:26;2.43;;;1.00;;
1320;SDS011;653;51.480;11.992;2022-10-16T09:49:23;1.70;;;1.13;;
1320;SDS011;653;51.480;11.992;2022-10-16T09:52:13;1.20;;;0.87;;
1320;SDS011;653;51.480;11.992;2022-10-16T09:54:50;1.67;;;0.90;;
1320;SDS011;653;51.480;11.992;2022-10-16T09:57:19;1.10;;;0.80;;
1320;SDS011;653;51.480;11.992;2022-10-16T09:59:47;1.70;;;0.80;;
1320;SDS011;653;51.480;11.992;2022-10-16T10:02:37;1.10;;;0.80;;
1320;SDS011;653;51.480;11.992;2022-10-16T10:05:28;1.80;;;0.90;;
1320;SDS011;653;51.480;11.992;2022-10-16T10:08:02;1.40;;;0.70;;
1320;SDS011;653;51.480;11.992;2022-10-16T10:10:32;1.10;;;0.80;;
1320;SDS011;653;51.480;11.992;2022-10-16T10:12:59;1.73;;;0.87;;
1320;SDS011;653;51.480;11.992;2022-10-16T10:15:27;1.30;;;1.10;;
1320;SDS011;653;51.480;11.992;2022-10-16T10:17:56;1.80;;;1.10;;
1320;SDS011;653;51.480;11.992;2022-10-16T10:20:32;4.13;;;0.83;;
1320;SDS011;653;51.480;11.992;2022-10-16T10:23:01;2.00;;;1.17;;
1320;SDS011;653;51.480;11.992;2022-10-16T10:31:53;1.40;;;0.90;;
1320;SDS011;653;51.480;11.992;2022-10-16T10:40:32;1.23;;;1.00;;
1320;SDS011;653;51.480;11.992;2022-10-16T10:43:12;1.80;;;1.00;;
1320;SDS011;653;51.480;11.992;2022-10-16T10:45:47;1.40;;;1.30;;
1320;SDS011;653;51.480;11.992;2022-10-16T10:50:52;1.53;;;0.90;;
1320;SDS011;653;51.480;11.992;2022-10-16T10:54:03;1.00;;;0.90;;
1320;SDS011;653;51.480;11.992;2022-10-16T10:56:57;2.10;;;1.10;;
1320;SDS011;653;51.480;11.992;2022-10-16T11:02:48;1.30;;;0.90;;
1320;SDS011;653;51.480;11.992;2022-10-16T11:11:10;1.73;;;0.93;;
1320;SDS011;653;51.480;11.992;2022-10-16T11:14:03;1.40;;;1.00;;
1320;SDS011;653;51.480;11.992;2022-10-16T11:17:02;1.50;;;1.03;;
1320;SDS011;653;51.480;11.992;2022-10-16T11:20:05;1.53;;;1.07;;
1320;SDS011;653;51.480;11.992;2022-10-16T11:25:49;1.40;;;1.17;;
1320;SDS011;653;51.480;11.992;2022-10-16T11:28:39;4.20;;;1.33;;
1320;SDS011;653;51.480;11.992;2022-10-16T11:31:29;1.73;;;1.10;;
1320;SDS011;653;51.480;11.992;2022-10-16T11:40:16;2.60;;;1.20;;
1320;SDS011;653;51.480;11.992;2022-10-16T11:42:48;1.63;;;1.00;;
1320;SDS011;653;51.480;11.992;2022-10-16T11:51:24;1.60;;;1.40;;
1320;SDS011;653;51.480;11.992;2022-10-16T11:56:59;3.73;;;0.97;;
1320;SDS011;653;51.480;11.992;2022-10-16T11:59:33;1.73;;;1.07;;
1320;SDS011;653;51.480;11.992;2022-10-16T12:02:28;3.50;;;1.10;;
1320;SDS011;653;51.480;11.992;2022-10-16T12:07:37;4.10;;;1.20;;
1320;SDS011;653;51.480;11.992;2022-10-16T12:10:18;2.47;;;1.10;;
1320;SDS011;653;51.480;11.992;2022-10-16T12:12:53;1.97;;;1.20;;
1320;SDS011;653;51.480;11.992;2022-10-16T12:15:27;1.40;;;1.30;;
1320;SDS011;653;51.480;11.992;2022-10-16T12:17:54;1.10;;;1.00;;
1320;SDS011;653;51.480;11.992;2022-10-16T12:20:25;1.40;;;1.30;;
1320;SDS011;653;51.480;11.992;2022-10-16T12:22:55;2.17;;;1.27;;
1320;SDS011;653;51.480;11.992;2022-10-16T12:25:27;2.90;;;1.40;;
1320;SDS011;653;51.480;11.992;2022-10-16T12:28:20;1.73;;;1.30;;
1320;SDS011;653;51.480;11.992;2022-10-16T12:30:54;1.30;;;1.10;;
1320;SDS011;653;51.480;11.992;2022-10-16T12:33:33;1.30;;;1.20;;
1320;SDS011;653;51.480;11.992;2022-10-16T12:36:00;1.83;;;1.00;;
1320;SDS011;653;51.480;11.992;2022-10-16T12:41:31;1.50;;;1.20;;
1320;SDS011;653;51.480;11.992;2022-10-16T12:43:59;1.00;;;0.87;;
1320;SDS011;653;51.480;11.992;2022-10-16T12:49:06;1.50;;;1.20;;
1320;SDS011;653;51.480;11.992;2022-10-16T12:51:58;2.00;;;1.30;;
1320;SDS011;653;51.480;11.992;2022-10-16T12:54:31;1.60;;;1.50;;
1320;SDS011;653;51.480;11.992;2022-10-16T12:59:43;4.07;;;1.10;;
1320;SDS011;653;51.480;11.992;2022-10-16T13:02:45;1.13;;;1.03;;
1320;SDS011;653;51.480;11.992;2022-10-16T13:12:14;1.90;;;1.53;;
1320;SDS011;653;51.480;11.992;2022-10-16T13:21:18;1.37;;;1.27;;
1320;SDS011;653;51.480;11.992;2022-10-16T13:27:07;2.17;;;1.37;;
1320;SDS011;653;51.480;11.992;2022-10-16T13:29:30;1.20;;;1.00;;
1320;SDS011;653;51.480;11.992;2022-10-16T13:31:56;1.30;;;1.20;;
1320;SDS011;653;51.480;11.992;2022-10-16T13:34:22;2.33;;;1.50;;
1320;SDS011;653;51.480;11.992;2022-10-16T13:36:50;1.70;;;1.60;;
1320;SDS011;653;51.480;11.992;2022-10-16T13:39:24;1.63;;;1.50;;
1320;SDS011;653;51.480;11.992;2022-10-16T13:42:03;2.80;;;1.57;;
1320;SDS011;653;51.480;11.992;2022-10-16T13:44:42;2.10;;;1.20;;
1320;SDS011;653;51.480;11.992;2022-10-16T13:47:13;2.70;;;1.53;;
1320;SDS011;653;51.480;11.992;2022-10-16T13:49:58;3.87;;;1.57;;
1320;SDS011;653;51.480;11.992;2022-10-16T13:52:30;1.40;;;1.30;;
1320;SDS011;653;51.480;11.992;2022-10-16T13:54:57;3.23;;;1.57;;
1320;SDS011;653;51.480;11.992;2022-10-16T13:57:25;2.83;;;1.30;;
1320;SDS011;653;51.480;11.992;2022-10-16T13:59:51;1.77;;;1.20;;
1320;SDS011;653;51.480;11.992;2022-10-16T14:05:01;2.07;;;1.87;;
1320;SDS011;653;51.480;11.992;2022-10-16T14:07:30;1.90;;;1.27;;
1320;SDS011;653;51.480;11.992;2022-10-16T14:10:00;3.10;;;1.10;;
1320;SDS011;653;51.480;11.992;2022-10-16T14:12:28;1.60;;;1.50;;
1320;SDS011;653;51.480;11.992;2022-10-16T14:14:59;3.10;;;1.30;;
1320;SDS011;653;51.480;11.992;2022-10-16T14:17:33;1.70;;;1.50;;
1320;SDS011;653;51.480;11.992;2022-10-16T14:20:02;4.20;;;1.40;;
1320;SDS011;653;51.480;11.992;2022-10-16T14:22:34;3.70;;;1.60;;
1320;SDS011;653;51.480;11.992;2022-10-16T14:25:16;2.23;;;1.80;;
1320;SDS011;653;51.480;11.992;2022-10-16T14:30:56;1.57;;;1.47;;
1320;SDS011;653;51.480;11.992;2022-10-16T14:38:27;1.93;;;1.73;;
1320;SDS011;653;51.480;11.992;2022-10-16T14:40:54;2.53;;;1.77;;
1320;SDS011;653;51.480;11.992;2022-10-16T14:43:34;1.40;;;1.30;;
1320;SDS011;653;51.480;11.992;2022-10-16T14:46:16;2.50;;;1.87;;
1320;SDS011;653;51.480;11.992;2022-10-16T14:49:12;1.50;;;1.40;;
1320;SDS011;653;51.480;11.992;2022-10-16T14:51:43;2.20;;;2.10;;
1320;SDS011;653;51.480;11.992;2022-10-16T14:54:11;1.70;;;1.60;;
1320;SDS011;653;51.480;11.992;2022-10-16T14:56:54;3.30;;;2.77;;
1320;SDS011;653;51.480;11.992;2022-10-16T14:59:25;3.40;;;2.17;;
1320;SDS011;653;51.480;11.992;2022-10-16T15:01:55;2.93;;;2.30;;
1320;SDS011;653;51.480;11.992;2022-10-16T15:04:21;2.13;;;1.63;;
1320;SDS011;653;51.480;11.992;2022-10-16T15:06:47;1.80;;;1.70;;
1320;SDS011;653;51.480;11.992;2022-10-16T15:09:12;2.30;;;2.07;;
1320;SDS011;653;51.480;11.992;2022-10-16T15:11:39;2.10;;;1.90;;
1320;SDS011;653;51.480;11.992;2022-10-16T15:14:05;2.43;;;2.23;;
1320;SDS011;653;51.480;11.992;2022-10-16T15:16:31;2.20;;;2.00;;
1320;SDS011;653;51.480;11.992;2022-10-16T15:18:57;1.90;;;1.77;;
1320;SDS011;653;51.480;11.992;2022-10-16T15:21:31;3.00;;;2.27;;
1320;SDS011;653;51.480;11.992;2022-10-16T15:24:00;10.60;;;8.73;;
1320;SDS011;653;51.480;11.992;2022-10-16T15:26:27;10.90;;;8.50;;
1320;SDS011;653;51.480;11.992;2022-10-16T15:28:54;5.43;;;4.63;;
1320;SDS011;653;51.480;11.992;2022-10-16T15:31:21;6.67;;;5.40;;
1320;SDS011;653;51.480;11.992;2022-10-16T15:33:51;6.50;;;4.23;;
1320;SDS011;653;51.480;11.992;2022-10-16T15:36:29;4.80;;;3.97;;
1320;SDS011;653;51.480;11.992;2022-10-16T15:39:01;3.57;;;3.27;;
1320;SDS011;653;51.480;11.992;2022-10-16T15:41:28;9.43;;;4.23;;
1320;SDS011;653;51.480;11.992;2022-10-16T15:43:54;4.50;;;4.07;;
1320;SDS011;653;51.480;11.992;2022-10-16T15:46:21;5.30;;;4.80;;
1320;SDS011;653;51.480;11.992;2022-10-16T15:48:49;5.07;;;4.07;;
1320;SDS011;653;51.480;11.992;2022-10-16T15:51:15;2.60;;;2.20;;
1320;SDS011;653;51.480;11.992;2022-10-16T15:53:42;1.93;;;1.63;;
1320;SDS011;653;51.480;11.992;2022-10-16T15:56:09;3.83;;;1.90;;
1320;SDS011;653;51.480;11.992;2022-10-16T15:58:37;2.93;;;1.87;;
1320;SDS011;653;51.480;11.992;2022-10-16T16:01:03;2.17;;;1.97;;
1320;SDS011;653;51.480;11.992;2022-10-16T16:03:31;3.60;;;1.90;;
1320;SDS011;653;51.480;11.992;2022-10-16T16:05:57;2.90;;;2.60;;
1320;SDS011;653;51.480;11.992;2022-10-16T16:08:22;9.10;;;3.10;;
1320;SDS011;653;51.480;11.992;2022-10-16T16:10:59;3.87;;;2.80;;
1320;SDS011;653;51.480;11.992;2022-10-16T16:13:26;4.03;;;3.00;;
1320;SDS011;653;51.480;11.992;2022-10-16T16:15:53;6.20;;;2.50;;
1320;SDS011;653;51.480;11.992;2022-10-16T16:18:19;2.73;;;2.37;;
1320;SDS011;653;51.480;11.992;2022-10-16T16:20:46;3.10;;;2.00;;
1320;SDS011;653;51.480;11.992;2022-10-16T16:23:12;5.40;;;2.00;;
1320;SDS011;653;51.480;11.992;2022-10-16T16:25:38;2.70;;;1.90;;
1320;SDS011;653;51.480;11.992;2022-10-16T16:28:05;3.50;;;2.27;;
1320;SDS011;653;51.480;11.992;2022-10-16T16:30:33;3.93;;;2.37;;
1320;SDS011;653;51.480;11.992;2022-10-16T16:32:59;2.03;;;1.77;;
1320;SDS011;653;51.480;11.992;2022-10-16T16:35:26;4.10;;;2.00;;
1320;SDS011;653;51.480;11.992;2022-10-16T16:37:51;2.00;;;1.60;;
1320;SDS011;653;51.480;11.992;2022-10-16T16:40:17;2.30;;;1.60;;
1320;SDS011;653;51.480;11.992;2022-10-16T16:42:47;3.73;;;2.10;;
1320;SDS011;653;51.480;11.992;2022-10-16T16:45:18;3.03;;;2.20;;
1320;SDS011;653;51.480;11.992;2022-10-16T16:47:45;4.13;;;2.17;;
1320;SDS011;653;51.480;11.992;2022-10-16T16:50:10;4.97;;;1.90;;
1320;SDS011;653;51.480;11.992;2022-10-16T16:52:37;2.87;;;2.30;;
1320;SDS011;653;51.480;11.992;2022-10-16T16:55:05;2.23;;;1.90;;
1320;SDS011;653;51.480;11.992;2022-10-16T16:57:31;2.17;;;1.87;;
1320;SDS011;653;51.480;11.992;2022-10-16T16:59:57;2.50;;;2.00;;
1320;SDS011;653;51.480;11.992;2022-10-16T17:02:24;3.17;;;2.43;;
1320;SDS011;653;51.480;11.992;2022-10-16T17:04:52;2.67;;;2.20;;
1320;SDS011;653;51.480;11.992;2022-10-16T17:07:18;3.07;;;1.87;;
1320;SDS011;653;51.480;11.992;2022-10-16T17:09:44;2.30;;;1.90;;
1320;SDS011;653;51.480;11.992;2022-10-16T17:12:09;2.50;;;2.03;;
1320;SDS011;653;51.480;11.992;2022-10-16T17:14:36;2.50;;;1.70;;
1320;SDS011;653;51.480;11.992;2022-10-16T17:17:02;2.43;;;2.03;;
1320;SDS011;653;51.480;11.992;2022-10-16T17:19:28;5.10;;;1.83;;
1320;SDS011;653;51.480;11.992;2022-10-16T17:21:57;3.47;;;2.67;;
1320;SDS011;653;51.480;11.992;2022-10-16T17:24:26;4.90;;;4.27;;
1320;SDS011;653;51.480;11.992;2022-10-16T17:26:53;5.77;;;4.40;;
1320;SDS011;653;51.480;11.992;2022-10-16T17:29:21;4.30;;;3.37;;